Hovedside
METAR-TAF:

METAR-TAF

Lufthavner :

Buriram, Thailand

breddegrad: 15-13-46N, lengdegrad: 103-15-04E, høyde over havet: 180 m

Gjeldene værobservasjon

Denne rapporten ble laget for 32 minutter siden, klokken 10:00 UTC
Vind 2 kt fra skiftende retning
Temperatur 37°C
Luftfuktighet 31%
Trykk 1002 hPa
Sikt 10 km eller mer
Spredte skyer i en høyde av 3000 ft

METAR: VTUO 151000Z VRB02KT 9999 SCT030 37/17 Q1002 NOSIG

Tid: 17:32 (10:32 UTC)

Varsel

Denne rapporten ble laget for 5 timer og 32 minutter siden, klokken 05:00 UTC
Varsel gyldig fra 15. klokken 06 UTC til 16. klokken 06 UTC
Vind 5 kt fra Vest-sørvest
Sikt: 9000 m
Spredte skyer i en høyde av 3000 ft
Midlertidig
fra 15. klokken 13 UTC til 15. klokken 17 UTC
Få skyer i en høyde av 1800 ft, Bygeskyer.
Brutte skyer i en høyde av 3000 ft
torden, lett regn,

TAF: VTUO 150500Z 1506/1606 25005KT 9000 SCT030 TEMPO 1513/1517 -TSRA FEW018CB BKN030

Værobservasjoner og værvarsel for over 4000 flyplasser (METAR- og TAF-rapporter).

Tilgjengelige stasjoner er representert av de røde og gule prikkene på kartet.

Hold musepekeren over prikken for å se navnet på stasjonen.

Klikk så for å se værobservasjoner og -varsler.

For å forandre kartet kan du klikke på den grønne knappen med svart kryss for å zoome inn, på den grønne knappen med strek for å zoome ut, eller på de grønne pilene for å se tilstøtende kart.


METAR-TAF: